sensor_id;sensor_type;location;lat;lon;timestamp;P1;durP1;ratioP1;P2;durP2;ratioP2
8978;SDS011;4524;51.364;5.448;2023-09-19T00:00:38;26.02;;;15.35;;
8978;SDS011;4524;51.364;5.448;2023-09-19T00:03:10;31.08;;;19.25;;
8978;SDS011;4524;51.364;5.448;2023-09-19T00:05:39;10.20;;;2.53;;
8978;SDS011;4524;51.364;5.448;2023-09-19T00:08:12;8.68;;;2.20;;
8978;SDS011;4524;51.364;5.448;2023-09-19T00:10:41;10.32;;;1.75;;
8978;SDS011;4524;51.364;5.448;2023-09-19T00:13:10;9.27;;;1.65;;
8978;SDS011;4524;51.364;5.448;2023-09-19T00:15:42;9.05;;;1.50;;
8978;SDS011;4524;51.364;5.448;2023-09-19T00:18:16;7.85;;;2.22;;
8978;SDS011;4524;51.364;5.448;2023-09-19T00:20:45;7.50;;;2.58;;
8978;SDS011;4524;51.364;5.448;2023-09-19T00:23:14;16.15;;;2.35;;
8978;SDS011;4524;51.364;5.448;2023-09-19T00:25:42;78.13;;;60.60;;
8978;SDS011;4524;51.364;5.448;2023-09-19T00:28:11;10.43;;;2.03;;
8978;SDS011;4524;51.364;5.448;2023-09-19T00:30:42;6.25;;;1.63;;
8978;SDS011;4524;51.364;5.448;2023-09-19T00:33:11;7.63;;;1.45;;
8978;SDS011;4524;51.364;5.448;2023-09-19T00:35:47;9.05;;;2.42;;
8978;SDS011;4524;51.364;5.448;2023-09-19T00:38:16;8.90;;;1.45;;
8978;SDS011;4524;51.364;5.448;2023-09-19T00:40:47;7.00;;;1.73;;
8978;SDS011;4524;51.364;5.448;2023-09-19T00:43:16;10.27;;;1.52;;
8978;SDS011;4524;51.364;5.448;2023-09-19T00:45:45;9.13;;;1.85;;
8978;SDS011;4524;51.364;5.448;2023-09-19T00:48:15;6.80;;;1.48;;
8978;SDS011;4524;51.364;5.448;2023-09-19T00:50:45;6.40;;;1.60;;
8978;SDS011;4524;51.364;5.448;2023-09-19T00:53:17;20.10;;;11.35;;
8978;SDS011;4524;51.364;5.448;2023-09-19T00:55:49;65.63;;;53.97;;
8978;SDS011;4524;51.364;5.448;2023-09-19T00:58:18;62.40;;;48.42;;
8978;SDS011;4524;51.364;5.448;2023-09-19T01:00:47;8.27;;;2.17;;
8978;SDS011;4524;51.364;5.448;2023-09-19T01:03:15;27.77;;;22.17;;
8978;SDS011;4524;51.364;5.448;2023-09-19T01:05:45;42.72;;;29.90;;
8978;SDS011;4524;51.364;5.448;2023-09-19T01:08:15;16.33;;;10.10;;
8978;SDS011;4524;51.364;5.448;2023-09-19T01:13:21;13.02;;;3.70;;
8978;SDS011;4524;51.364;5.448;2023-09-19T01:15:59;25.73;;;19.55;;
8978;SDS011;4524;51.364;5.448;2023-09-19T01:21:15;7.68;;;1.65;;
8978;SDS011;4524;51.364;5.448;2023-09-19T01:24:10;7.75;;;1.50;;
8978;SDS011;4524;51.364;5.448;2023-09-19T01:27:17;8.10;;;1.48;;
8978;SDS011;4524;51.364;5.448;2023-09-19T01:30:01;1.95;;;0.85;;
8978;SDS011;4524;51.364;5.448;2023-09-19T01:32:34;11.70;;;1.50;;
8978;SDS011;4524;51.364;5.448;2023-09-19T01:35:05;9.40;;;1.67;;
8978;SDS011;4524;51.364;5.448;2023-09-19T01:37:34;6.93;;;1.35;;
8978;SDS011;4524;51.364;5.448;2023-09-19T01:40:05;13.15;;;2.10;;
8978;SDS011;4524;51.364;5.448;2023-09-19T01:42:44;6.97;;;1.77;;
8978;SDS011;4524;51.364;5.448;2023-09-19T01:45:19;7.43;;;1.70;;
8978;SDS011;4524;51.364;5.448;2023-09-19T01:47:54;9.73;;;1.70;;
8978;SDS011;4524;51.364;5.448;2023-09-19T01:50:27;8.57;;;2.15;;
8978;SDS011;4524;51.364;5.448;2023-09-19T01:52:59;37.08;;;26.60;;
8978;SDS011;4524;51.364;5.448;2023-09-19T01:55:36;23.88;;;18.35;;
8978;SDS011;4524;51.364;5.448;2023-09-19T01:58:14;9.55;;;5.20;;
8978;SDS011;4524;51.364;5.448;2023-09-19T02:00:47;6.70;;;1.70;;
8978;SDS011;4524;51.364;5.448;2023-09-19T02:03:18;19.98;;;7.07;;
8978;SDS011;4524;51.364;5.448;2023-09-19T02:05:50;15.30;;;9.20;;
8978;SDS011;4524;51.364;5.448;2023-09-19T02:08:20;13.82;;;2.97;;
8978;SDS011;4524;51.364;5.448;2023-09-19T02:10:50;6.35;;;1.13;;
8978;SDS011;4524;51.364;5.448;2023-09-19T02:13:19;8.88;;;1.70;;
8978;SDS011;4524;51.364;5.448;2023-09-19T02:15:50;8.75;;;1.58;;
8978;SDS011;4524;51.364;5.448;2023-09-19T02:18:18;4.03;;;0.90;;
8978;SDS011;4524;51.364;5.448;2023-09-19T02:20:46;8.57;;;1.38;;
8978;SDS011;4524;51.364;5.448;2023-09-19T02:23:14;5.90;;;2.50;;
8978;SDS011;4524;51.364;5.448;2023-09-19T02:25:51;8.25;;;1.45;;
8978;SDS011;4524;51.364;5.448;2023-09-19T02:28:20;14.85;;;1.80;;
8978;SDS011;4524;51.364;5.448;2023-09-19T02:30:51;7.70;;;1.55;;
8978;SDS011;4524;51.364;5.448;2023-09-19T02:33:19;6.30;;;1.30;;
8978;SDS011;4524;51.364;5.448;2023-09-19T02:35:54;10.23;;;1.73;;
8978;SDS011;4524;51.364;5.448;2023-09-19T02:38:24;6.80;;;1.50;;
8978;SDS011;4524;51.364;5.448;2023-09-19T02:40:52;4.68;;;1.25;;
8978;SDS011;4524;51.364;5.448;2023-09-19T02:43:21;6.15;;;1.52;;
8978;SDS011;4524;51.364;5.448;2023-09-19T02:45:49;4.75;;;1.40;;
8978;SDS011;4524;51.364;5.448;2023-09-19T02:48:19;8.60;;;1.55;;
8978;SDS011;4524;51.364;5.448;2023-09-19T02:50:49;8.43;;;1.70;;
8978;SDS011;4524;51.364;5.448;2023-09-19T02:53:18;7.13;;;2.00;;
8978;SDS011;4524;51.364;5.448;2023-09-19T02:55:46;6.75;;;1.52;;
8978;SDS011;4524;51.364;5.448;2023-09-19T02:58:15;22.48;;;14.50;;
8978;SDS011;4524;51.364;5.448;2023-09-19T03:00:45;32.20;;;20.95;;
8978;SDS011;4524;51.364;5.448;2023-09-19T03:03:16;28.13;;;22.40;;
8978;SDS011;4524;51.364;5.448;2023-09-19T03:05:44;55.97;;;44.03;;
8978;SDS011;4524;51.364;5.448;2023-09-19T03:08:15;10.20;;;6.32;;
8978;SDS011;4524;51.364;5.448;2023-09-19T03:10:46;7.03;;;1.38;;
8978;SDS011;4524;51.364;5.448;2023-09-19T03:13:15;7.68;;;1.45;;
8978;SDS011;4524;51.364;5.448;2023-09-19T03:15:43;7.53;;;2.25;;
8978;SDS011;4524;51.364;5.448;2023-09-19T03:18:16;8.35;;;1.48;;
8978;SDS011;4524;51.364;5.448;2023-09-19T03:20:51;8.02;;;2.72;;
8978;SDS011;4524;51.364;5.448;2023-09-19T03:23:21;16.52;;;7.63;;
8978;SDS011;4524;51.364;5.448;2023-09-19T03:25:50;10.27;;;2.33;;
8978;SDS011;4524;51.364;5.448;2023-09-19T03:28:19;27.00;;;20.05;;
8978;SDS011;4524;51.364;5.448;2023-09-19T03:30:56;12.77;;;3.92;;
8978;SDS011;4524;51.364;5.448;2023-09-19T03:33:28;63.60;;;43.13;;
8978;SDS011;4524;51.364;5.448;2023-09-19T03:35:58;145.13;;;99.68;;
8978;SDS011;4524;51.364;5.448;2023-09-19T03:38:27;55.28;;;40.97;;
8978;SDS011;4524;51.364;5.448;2023-09-19T03:40:55;73.15;;;51.53;;
8978;SDS011;4524;51.364;5.448;2023-09-19T03:43:23;63.10;;;48.72;;
8978;SDS011;4524;51.364;5.448;2023-09-19T03:45:51;70.18;;;49.40;;
8978;SDS011;4524;51.364;5.448;2023-09-19T03:48:21;81.00;;;59.95;;
8978;SDS011;4524;51.364;5.448;2023-09-19T03:50:52;32.72;;;25.88;;
8978;SDS011;4524;51.364;5.448;2023-09-19T03:53:22;43.30;;;28.52;;
8978;SDS011;4524;51.364;5.448;2023-09-19T03:55:51;27.45;;;18.52;;
8978;SDS011;4524;51.364;5.448;2023-09-19T03:58:19;48.85;;;41.10;;
8978;SDS011;4524;51.364;5.448;2023-09-19T04:01:06;79.00;;;60.25;;
8978;SDS011;4524;51.364;5.448;2023-09-19T04:03:35;41.47;;;30.58;;
8978;SDS011;4524;51.364;5.448;2023-09-19T04:06:14;6.40;;;2.97;;
8978;SDS011;4524;51.364;5.448;2023-09-19T04:08:43;20.67;;;12.32;;
8978;SDS011;4524;51.364;5.448;2023-09-19T04:11:12;17.50;;;12.18;;
8978;SDS011;4524;51.364;5.448;2023-09-19T04:13:40;4.90;;;1.80;;
8978;SDS011;4524;51.364;5.448;2023-09-19T04:18:38;24.40;;;18.83;;
8978;SDS011;4524;51.364;5.448;2023-09-19T04:21:07;32.05;;;24.40;;
8978;SDS011;4524;51.364;5.448;2023-09-19T04:23:36;9.10;;;2.05;;
8978;SDS011;4524;51.364;5.448;2023-09-19T04:26:05;52.72;;;37.10;;
8978;SDS011;4524;51.364;5.448;2023-09-19T04:28:33;10.15;;;3.85;;
8978;SDS011;4524;51.364;5.448;2023-09-19T04:31:05;35.85;;;26.27;;
8978;SDS011;4524;51.364;5.448;2023-09-19T04:33:34;26.75;;;20.42;;
8978;SDS011;4524;51.364;5.448;2023-09-19T04:36:02;15.88;;;2.67;;
8978;SDS011;4524;51.364;5.448;2023-09-19T04:38:53;5.75;;;2.28;;
8978;SDS011;4524;51.364;5.448;2023-09-19T04:41:21;28.38;;;18.90;;
8978;SDS011;4524;51.364;5.448;2023-09-19T04:43:49;7.35;;;1.73;;
8978;SDS011;4524;51.364;5.448;2023-09-19T04:46:18;21.65;;;9.88;;
8978;SDS011;4524;51.364;5.448;2023-09-19T04:48:46;38.28;;;30.02;;
8978;SDS011;4524;51.364;5.448;2023-09-19T04:51:14;40.80;;;13.18;;
8978;SDS011;4524;51.364;5.448;2023-09-19T04:53:42;22.95;;;17.77;;
8978;SDS011;4524;51.364;5.448;2023-09-19T04:56:12;24.38;;;18.20;;
8978;SDS011;4524;51.364;5.448;2023-09-19T04:58:40;31.40;;;22.50;;
8978;SDS011;4524;51.364;5.448;2023-09-19T05:01:08;16.92;;;14.05;;
8978;SDS011;4524;51.364;5.448;2023-09-19T05:03:37;20.25;;;15.63;;
8978;SDS011;4524;51.364;5.448;2023-09-19T05:06:06;29.52;;;22.45;;
8978;SDS011;4524;51.364;5.448;2023-09-19T05:08:34;9.80;;;3.33;;
8978;SDS011;4524;51.364;5.448;2023-09-19T05:11:02;8.10;;;1.42;;
8978;SDS011;4524;51.364;5.448;2023-09-19T05:13:31;33.55;;;25.27;;
8978;SDS011;4524;51.364;5.448;2023-09-19T05:16:00;17.10;;;10.38;;
8978;SDS011;4524;51.364;5.448;2023-09-19T05:18:29;8.77;;;5.93;;
8978;SDS011;4524;51.364;5.448;2023-09-19T05:20:58;13.05;;;5.38;;
8978;SDS011;4524;51.364;5.448;2023-09-19T05:23:29;12.80;;;1.85;;
8978;SDS011;4524;51.364;5.448;2023-09-19T05:25:57;5.90;;;1.35;;
8978;SDS011;4524;51.364;5.448;2023-09-19T05:28:26;8.35;;;1.08;;
8978;SDS011;4524;51.364;5.448;2023-09-19T05:30:55;6.22;;;2.03;;
8978;SDS011;4524;51.364;5.448;2023-09-19T05:33:25;8.60;;;2.28;;
8978;SDS011;4524;51.364;5.448;2023-09-19T05:35:53;6.10;;;1.88;;
8978;SDS011;4524;51.364;5.448;2023-09-19T05:38:21;5.80;;;2.15;;
8978;SDS011;4524;51.364;5.448;2023-09-19T05:40:50;10.52;;;6.43;;
8978;SDS011;4524;51.364;5.448;2023-09-19T05:43:18;13.43;;;8.38;;
8978;SDS011;4524;51.364;5.448;2023-09-19T05:45:46;7.35;;;1.67;;
8978;SDS011;4524;51.364;5.448;2023-09-19T05:48:16;9.07;;;2.15;;
8978;SDS011;4524;51.364;5.448;2023-09-19T05:50:44;4.93;;;1.30;;
8978;SDS011;4524;51.364;5.448;2023-09-19T05:53:13;4.95;;;1.40;;
8978;SDS011;4524;51.364;5.448;2023-09-19T05:55:41;18.50;;;13.55;;
8978;SDS011;4524;51.364;5.448;2023-09-19T05:58:10;32.05;;;28.15;;
8978;SDS011;4524;51.364;5.448;2023-09-19T06:00:40;54.08;;;44.58;;
8978;SDS011;4524;51.364;5.448;2023-09-19T06:03:10;70.15;;;52.85;;
8978;SDS011;4524;51.364;5.448;2023-09-19T06:05:41;47.00;;;37.45;;
8978;SDS011;4524;51.364;5.448;2023-09-19T06:08:09;33.08;;;26.05;;
8978;SDS011;4524;51.364;5.448;2023-09-19T06:10:38;11.02;;;1.58;;
8978;SDS011;4524;51.364;5.448;2023-09-19T06:15:36;27.27;;;21.60;;
8978;SDS011;4524;51.364;5.448;2023-09-19T06:18:04;20.42;;;18.05;;
8978;SDS011;4524;51.364;5.448;2023-09-19T06:20:33;26.10;;;19.75;;
8978;SDS011;4524;51.364;5.448;2023-09-19T06:23:02;35.28;;;25.23;;
8978;SDS011;4524;51.364;5.448;2023-09-19T06:25:31;53.50;;;44.22;;
8978;SDS011;4524;51.364;5.448;2023-09-19T06:27:59;25.27;;;19.85;;
8978;SDS011;4524;51.364;5.448;2023-09-19T06:30:31;11.05;;;1.90;;
8978;SDS011;4524;51.364;5.448;2023-09-19T06:33:00;31.05;;;21.05;;
8978;SDS011;4524;51.364;5.448;2023-09-19T06:35:31;66.13;;;52.08;;
8978;SDS011;4524;51.364;5.448;2023-09-19T06:38:03;24.48;;;22.00;;
8978;SDS011;4524;51.364;5.448;2023-09-19T06:40:33;10.77;;;5.97;;
8978;SDS011;4524;51.364;5.448;2023-09-19T06:43:21;42.85;;;34.15;;
8978;SDS011;4524;51.364;5.448;2023-09-19T06:45:50;11.93;;;6.05;;
8978;SDS011;4524;51.364;5.448;2023-09-19T06:48:21;20.55;;;13.88;;
8978;SDS011;4524;51.364;5.448;2023-09-19T06:50:52;8.63;;;2.75;;
8978;SDS011;4524;51.364;5.448;2023-09-19T06:53:22;20.80;;;17.88;;
8978;SDS011;4524;51.364;5.448;2023-09-19T06:55:50;16.70;;;12.13;;
8978;SDS011;4524;51.364;5.448;2023-09-19T06:58:19;15.93;;;7.97;;
8978;SDS011;4524;51.364;5.448;2023-09-19T07:00:47;9.93;;;3.00;;
8978;SDS011;4524;51.364;5.448;2023-09-19T07:03:16;8.15;;;1.60;;
8978;SDS011;4524;51.364;5.448;2023-09-19T07:08:14;5.50;;;1.30;;
8978;SDS011;4524;51.364;5.448;2023-09-19T07:10:43;7.00;;;1.40;;
8978;SDS011;4524;51.364;5.448;2023-09-19T07:13:15;6.72;;;1.60;;
8978;SDS011;4524;51.364;5.448;2023-09-19T07:15:44;7.97;;;1.70;;
8978;SDS011;4524;51.364;5.448;2023-09-19T07:18:14;10.95;;;1.95;;
8978;SDS011;4524;51.364;5.448;2023-09-19T07:20:43;9.85;;;2.70;;
8978;SDS011;4524;51.364;5.448;2023-09-19T07:23:15;5.32;;;1.23;;
8978;SDS011;4524;51.364;5.448;2023-09-19T07:25:46;12.27;;;6.88;;
8978;SDS011;4524;51.364;5.448;2023-09-19T07:28:15;14.20;;;4.82;;
8978;SDS011;4524;51.364;5.448;2023-09-19T07:30:43;8.02;;;1.88;;
8978;SDS011;4524;51.364;5.448;2023-09-19T07:33:11;6.57;;;1.73;;
8978;SDS011;4524;51.364;5.448;2023-09-19T07:35:40;7.35;;;1.80;;
8978;SDS011;4524;51.364;5.448;2023-09-19T07:38:08;7.72;;;1.92;;
8978;SDS011;4524;51.364;5.448;2023-09-19T07:40:38;8.82;;;1.55;;
8978;SDS011;4524;51.364;5.448;2023-09-19T07:43:07;7.45;;;1.70;;
8978;SDS011;4524;51.364;5.448;2023-09-19T07:45:35;4.82;;;1.33;;
8978;SDS011;4524;51.364;5.448;2023-09-19T07:48:04;7.93;;;1.92;;
8978;SDS011;4524;51.364;5.448;2023-09-19T07:50:40;10.68;;;2.05;;
8978;SDS011;4524;51.364;5.448;2023-09-19T07:53:09;3.53;;;1.35;;
8978;SDS011;4524;51.364;5.448;2023-09-19T07:55:39;10.38;;;2.05;;
8978;SDS011;4524;51.364;5.448;2023-09-19T07:58:10;5.75;;;1.60;;
8978;SDS011;4524;51.364;5.448;2023-09-19T08:00:39;12.05;;;2.15;;
8978;SDS011;4524;51.364;5.448;2023-09-19T08:03:07;7.85;;;1.73;;
8978;SDS011;4524;51.364;5.448;2023-09-19T08:05:43;3.65;;;1.30;;
8978;SDS011;4524;51.364;5.448;2023-09-19T08:08:12;15.25;;;1.95;;
8978;SDS011;4524;51.364;5.448;2023-09-19T08:10:42;16.35;;;10.68;;
8978;SDS011;4524;51.364;5.448;2023-09-19T08:13:14;14.50;;;6.05;;
8978;SDS011;4524;51.364;5.448;2023-09-19T08:15:44;10.27;;;4.13;;
8978;SDS011;4524;51.364;5.448;2023-09-19T08:18:13;14.82;;;8.85;;
8978;SDS011;4524;51.364;5.448;2023-09-19T08:20:41;17.77;;;7.63;;
8978;SDS011;4524;51.364;5.448;2023-09-19T08:23:11;18.67;;;14.52;;
8978;SDS011;4524;51.364;5.448;2023-09-19T08:25:39;12.25;;;6.47;;
8978;SDS011;4524;51.364;5.448;2023-09-19T08:28:07;8.32;;;1.88;;
8978;SDS011;4524;51.364;5.448;2023-09-19T08:30:39;14.32;;;3.05;;
8978;SDS011;4524;51.364;5.448;2023-09-19T08:33:07;7.25;;;1.92;;
8978;SDS011;4524;51.364;5.448;2023-09-19T08:35:36;7.63;;;1.40;;
8978;SDS011;4524;51.364;5.448;2023-09-19T08:38:06;9.82;;;7.20;;
8978;SDS011;4524;51.364;5.448;2023-09-19T08:40:36;8.68;;;2.30;;
8978;SDS011;4524;51.364;5.448;2023-09-19T08:43:06;12.38;;;4.13;;
8978;SDS011;4524;51.364;5.448;2023-09-19T08:48:19;11.35;;;5.13;;
8978;SDS011;4524;51.364;5.448;2023-09-19T08:50:51;10.77;;;1.75;;
8978;SDS011;4524;51.364;5.448;2023-09-19T08:53:28;10.10;;;2.00;;
8978;SDS011;4524;51.364;5.448;2023-09-19T08:56:04;7.97;;;2.65;;
8978;SDS011;4524;51.364;5.448;2023-09-19T08:58:39;9.00;;;1.80;;
8978;SDS011;4524;51.364;5.448;2023-09-19T09:01:14;12.82;;;1.95;;
8978;SDS011;4524;51.364;5.448;2023-09-19T09:03:45;20.75;;;10.02;;
8978;SDS011;4524;51.364;5.448;2023-09-19T09:06:15;5.07;;;1.40;;
8978;SDS011;4524;51.364;5.448;2023-09-19T09:08:44;16.17;;;2.65;;
8978;SDS011;4524;51.364;5.448;2023-09-19T09:11:13;17.90;;;4.35;;
8978;SDS011;4524;51.364;5.448;2023-09-19T09:13:43;8.88;;;5.70;;
8978;SDS011;4524;51.364;5.448;2023-09-19T09:16:12;11.82;;;2.08;;
8978;SDS011;4524;51.364;5.448;2023-09-19T09:18:47;16.38;;;2.20;;
8978;SDS011;4524;51.364;5.448;2023-09-19T09:21:20;14.52;;;5.45;;
8978;SDS011;4524;51.364;5.448;2023-09-19T09:23:48;13.25;;;2.10;;
8978;SDS011;4524;51.364;5.448;2023-09-19T09:26:19;8.82;;;1.88;;
8978;SDS011;4524;51.364;5.448;2023-09-19T09:29:09;6.35;;;1.90;;
8978;SDS011;4524;51.364;5.448;2023-09-19T09:31:38;12.68;;;2.10;;
8978;SDS011;4524;51.364;5.448;2023-09-19T09:34:10;10.02;;;1.85;;
8978;SDS011;4524;51.364;5.448;2023-09-19T09:36:40;5.80;;;1.75;;
8978;SDS011;4524;51.364;5.448;2023-09-19T09:41:45;8.93;;;2.17;;
8978;SDS011;4524;51.364;5.448;2023-09-19T09:44:13;12.93;;;1.95;;
8978;SDS011;4524;51.364;5.448;2023-09-19T09:46:44;11.02;;;1.67;;
8978;SDS011;4524;51.364;5.448;2023-09-19T09:49:49;4.95;;;1.23;;
8978;SDS011;4524;51.364;5.448;2023-09-19T09:52:44;11.38;;;5.43;;
8978;SDS011;4524;51.364;5.448;2023-09-19T09:55:12;27.25;;;8.57;;
8978;SDS011;4524;51.364;5.448;2023-09-19T09:57:40;12.40;;;5.20;;
8978;SDS011;4524;51.364;5.448;2023-09-19T10:00:11;11.40;;;1.67;;
8978;SDS011;4524;51.364;5.448;2023-09-19T10:02:47;8.27;;;1.88;;
8978;SDS011;4524;51.364;5.448;2023-09-19T10:05:35;4.80;;;1.20;;
8978;SDS011;4524;51.364;5.448;2023-09-19T10:08:10;6.55;;;1.65;;
8978;SDS011;4524;51.364;5.448;2023-09-19T10:10:40;9.32;;;2.45;;
8978;SDS011;4524;51.364;5.448;2023-09-19T10:13:21;5.32;;;1.13;;
8978;SDS011;4524;51.364;5.448;2023-09-19T10:15:53;6.45;;;1.95;;
8978;SDS011;4524;51.364;5.448;2023-09-19T10:21:12;5.93;;;1.77;;
8978;SDS011;4524;51.364;5.448;2023-09-19T10:23:40;5.55;;;1.73;;
8978;SDS011;4524;51.364;5.448;2023-09-19T10:26:11;8.38;;;2.45;;
8978;SDS011;4524;51.364;5.448;2023-09-19T10:28:43;6.40;;;2.55;;
8978;SDS011;4524;51.364;5.448;2023-09-19T10:31:17;18.73;;;5.78;;
8978;SDS011;4524;51.364;5.448;2023-09-19T10:33:47;4.93;;;1.35;;
8978;SDS011;4524;51.364;5.448;2023-09-19T10:36:18;7.30;;;4.15;;
8978;SDS011;4524;51.364;5.448;2023-09-19T10:38:48;7.38;;;1.85;;
8978;SDS011;4524;51.364;5.448;2023-09-19T10:41:19;4.65;;;1.55;;
8978;SDS011;4524;51.364;5.448;2023-09-19T10:43:50;5.72;;;1.55;;
8978;SDS011;4524;51.364;5.448;2023-09-19T10:46:59;10.55;;;1.65;;
8978;SDS011;4524;51.364;5.448;2023-09-19T10:49:29;11.68;;;6.60;;
8978;SDS011;4524;51.364;5.448;2023-09-19T10:52:00;9.45;;;5.43;;
8978;SDS011;4524;51.364;5.448;2023-09-19T10:54:30;8.85;;;3.15;;
8978;SDS011;4524;51.364;5.448;2023-09-19T10:57:03;7.93;;;2.00;;
8978;SDS011;4524;51.364;5.448;2023-09-19T10:59:35;8.38;;;3.78;;
8978;SDS011;4524;51.364;5.448;2023-09-19T11:02:15;8.25;;;1.80;;
8978;SDS011;4524;51.364;5.448;2023-09-19T11:04:45;5.47;;;1.83;;
8978;SDS011;4524;51.364;5.448;2023-09-19T11:07:16;7.43;;;1.38;;
8978;SDS011;4524;51.364;5.448;2023-09-19T11:09:45;5.00;;;1.30;;
8978;SDS011;4524;51.364;5.448;2023-09-19T11:24:30;4.82;;;1.85;;
8978;SDS011;4524;51.364;5.448;2023-09-19T11:27:14;5.65;;;1.60;;
8978;SDS011;4524;51.364;5.448;2023-09-19T11:29:44;4.63;;;1.35;;
8978;SDS011;4524;51.364;5.448;2023-09-19T11:32:13;8.43;;;1.30;;
8978;SDS011;4524;51.364;5.448;2023-09-19T11:34:44;7.28;;;1.00;;
8978;SDS011;4524;51.364;5.448;2023-09-19T11:40:46;5.05;;;1.25;;
8978;SDS011;4524;51.364;5.448;2023-09-19T11:43:30;7.43;;;2.13;;
8978;SDS011;4524;51.364;5.448;2023-09-19T11:46:03;5.35;;;1.13;;
8978;SDS011;4524;51.364;5.448;2023-09-19T11:48:35;8.75;;;1.42;;
8978;SDS011;4524;51.364;5.448;2023-09-19T11:51:11;4.13;;;1.70;;
8978;SDS011;4524;51.364;5.448;2023-09-19T11:53:46;3.95;;;0.90;;
8978;SDS011;4524;51.364;5.448;2023-09-19T11:56:17;4.03;;;1.08;;
8978;SDS011;4524;51.364;5.448;2023-09-19T11:58:46;6.10;;;1.20;;
8978;SDS011;4524;51.364;5.448;2023-09-19T12:01:21;6.25;;;1.48;;
8978;SDS011;4524;51.364;5.448;2023-09-19T12:03:55;4.78;;;0.93;;
8978;SDS011;4524;51.364;5.448;2023-09-19T12:06:24;3.30;;;1.10;;
8978;SDS011;4524;51.364;5.448;2023-09-19T12:08:53;5.95;;;2.72;;
8978;SDS011;4524;51.364;5.448;2023-09-19T12:11:27;4.65;;;1.27;;
8978;SDS011;4524;51.364;5.448;2023-09-19T12:13:57;7.45;;;1.30;;
8978;SDS011;4524;51.364;5.448;2023-09-19T12:16:27;7.00;;;1.60;;
8978;SDS011;4524;51.364;5.448;2023-09-19T12:18:56;1.92;;;0.52;;
8978;SDS011;4524;51.364;5.448;2023-09-19T12:21:26;3.35;;;0.80;;
8978;SDS011;4524;51.364;5.448;2023-09-19T12:23:58;4.35;;;0.60;;
8978;SDS011;4524;51.364;5.448;2023-09-19T12:26:28;3.33;;;0.77;;
8978;SDS011;4524;51.364;5.448;2023-09-19T12:29:00;9.15;;;1.90;;
8978;SDS011;4524;51.364;5.448;2023-09-19T12:31:31;5.15;;;1.33;;
8978;SDS011;4524;51.364;5.448;2023-09-19T12:34:02;3.08;;;0.65;;
8978;SDS011;4524;51.364;5.448;2023-09-19T12:36:31;5.45;;;1.10;;
8978;SDS011;4524;51.364;5.448;2023-09-19T12:39:00;2.33;;;0.80;;
8978;SDS011;4524;51.364;5.448;2023-09-19T12:41:38;4.60;;;1.10;;
8978;SDS011;4524;51.364;5.448;2023-09-19T12:44:06;3.70;;;0.85;;
8978;SDS011;4524;51.364;5.448;2023-09-19T12:46:36;1.38;;;0.55;;
8978;SDS011;4524;51.364;5.448;2023-09-19T12:49:14;2.58;;;0.65;;
8978;SDS011;4524;51.364;5.448;2023-09-19T12:51:45;2.70;;;0.47;;
8978;SDS011;4524;51.364;5.448;2023-09-19T12:54:14;2.15;;;0.90;;
8978;SDS011;4524;51.364;5.448;2023-09-19T12:56:44;4.25;;;0.82;;
8978;SDS011;4524;51.364;5.448;2023-09-19T12:59:15;1.88;;;0.70;;
8978;SDS011;4524;51.364;5.448;2023-09-19T13:01:43;10.55;;;1.30;;
8978;SDS011;4524;51.364;5.448;2023-09-19T13:04:13;3.92;;;0.70;;
8978;SDS011;4524;51.364;5.448;2023-09-19T13:06:46;4.53;;;1.65;;
8978;SDS011;4524;51.364;5.448;2023-09-19T13:09:16;7.55;;;2.00;;
8978;SDS011;4524;51.364;5.448;2023-09-19T13:11:48;1.98;;;0.73;;
8978;SDS011;4524;51.364;5.448;2023-09-19T13:14:17;1.98;;;0.40;;
8978;SDS011;4524;51.364;5.448;2023-09-19T13:16:52;2.90;;;0.70;;
8978;SDS011;4524;51.364;5.448;2023-09-19T13:19:35;5.07;;;1.17;;
8978;SDS011;4524;51.364;5.448;2023-09-19T13:25:05;5.70;;;1.42;;
8978;SDS011;4524;51.364;5.448;2023-09-19T13:27:39;2.80;;;0.80;;
8978;SDS011;4524;51.364;5.448;2023-09-19T13:30:08;3.10;;;1.05;;
8978;SDS011;4524;51.364;5.448;2023-09-19T13:32:37;4.35;;;0.80;;
8978;SDS011;4524;51.364;5.448;2023-09-19T13:35:07;4.43;;;0.63;;
8978;SDS011;4524;51.364;5.448;2023-09-19T13:37:38;5.47;;;1.00;;
8978;SDS011;4524;51.364;5.448;2023-09-19T13:40:09;3.20;;;1.23;;
8978;SDS011;4524;51.364;5.448;2023-09-19T13:42:38;6.63;;;0.85;;
8978;SDS011;4524;51.364;5.448;2023-09-19T13:45:08;3.67;;;0.75;;
8978;SDS011;4524;51.364;5.448;2023-09-19T13:47:38;4.65;;;2.08;;
8978;SDS011;4524;51.364;5.448;2023-09-19T13:50:08;2.83;;;1.67;;
8978;SDS011;4524;51.364;5.448;2023-09-19T13:52:36;5.65;;;2.70;;
8978;SDS011;4524;51.364;5.448;2023-09-19T13:57:33;2.92;;;2.05;;
8978;SDS011;4524;51.364;5.448;2023-09-19T14:00:03;2.13;;;0.90;;
8978;SDS011;4524;51.364;5.448;2023-09-19T14:02:37;5.50;;;0.98;;
8978;SDS011;4524;51.364;5.448;2023-09-19T14:05:06;1.45;;;0.57;;
8978;SDS011;4524;51.364;5.448;2023-09-19T14:07:35;2.80;;;0.95;;
8978;SDS011;4524;51.364;5.448;2023-09-19T14:10:03;2.90;;;0.70;;
8978;SDS011;4524;51.364;5.448;2023-09-19T14:12:34;5.40;;;0.93;;
8978;SDS011;4524;51.364;5.448;2023-09-19T14:15:04;6.80;;;1.20;;
8978;SDS011;4524;51.364;5.448;2023-09-19T14:17:33;4.38;;;0.70;;
8978;SDS011;4524;51.364;5.448;2023-09-19T14:20:01;6.22;;;0.95;;
8978;SDS011;4524;51.364;5.448;2023-09-19T14:24:58;6.70;;;1.00;;
8978;SDS011;4524;51.364;5.448;2023-09-19T14:27:26;8.15;;;0.60;;
8978;SDS011;4524;51.364;5.448;2023-09-19T14:29:54;5.55;;;1.27;;
8978;SDS011;4524;51.364;5.448;2023-09-19T14:32:24;4.22;;;1.05;;
8978;SDS011;4524;51.364;5.448;2023-09-19T14:34:52;1.50;;;0.82;;
8978;SDS011;4524;51.364;5.448;2023-09-19T14:37:20;2.03;;;1.05;;
8978;SDS011;4524;51.364;5.448;2023-09-19T14:39:48;3.47;;;0.80;;
8978;SDS011;4524;51.364;5.448;2023-09-19T14:42:16;3.08;;;0.95;;
8978;SDS011;4524;51.364;5.448;2023-09-19T14:44:44;3.38;;;0.98;;
8978;SDS011;4524;51.364;5.448;2023-09-19T14:47:13;3.55;;;0.90;;
8978;SDS011;4524;51.364;5.448;2023-09-19T14:49:44;2.42;;;0.80;;
8978;SDS011;4524;51.364;5.448;2023-09-19T14:52:12;3.55;;;0.70;;
8978;SDS011;4524;51.364;5.448;2023-09-19T14:55:01;9.20;;;1.50;;
8978;SDS011;4524;51.364;5.448;2023-09-19T14:57:31;3.28;;;0.88;;
8978;SDS011;4524;51.364;5.448;2023-09-19T14:59:59;2.13;;;0.93;;
8978;SDS011;4524;51.364;5.448;2023-09-19T15:04:57;2.75;;;0.80;;
8978;SDS011;4524;51.364;5.448;2023-09-19T15:07:25;2.55;;;0.77;;
8978;SDS011;4524;51.364;5.448;2023-09-19T15:09:55;6.22;;;1.10;;
8978;SDS011;4524;51.364;5.448;2023-09-19T15:12:24;1.92;;;0.90;;
8978;SDS011;4524;51.364;5.448;2023-09-19T15:14:52;3.65;;;1.50;;
8978;SDS011;4524;51.364;5.448;2023-09-19T15:17:20;2.25;;;0.60;;
8978;SDS011;4524;51.364;5.448;2023-09-19T15:19:49;6.32;;;1.20;;
8978;SDS011;4524;51.364;5.448;2023-09-19T15:22:18;5.57;;;1.10;;
8978;SDS011;4524;51.364;5.448;2023-09-19T15:24:48;4.50;;;0.90;;
8978;SDS011;4524;51.364;5.448;2023-09-19T15:27:18;8.38;;;2.20;;
8978;SDS011;4524;51.364;5.448;2023-09-19T15:29:46;3.63;;;1.30;;
8978;SDS011;4524;51.364;5.448;2023-09-19T15:32:14;6.30;;;5.57;;
8978;SDS011;4524;51.364;5.448;2023-09-19T15:34:42;2.10;;;1.13;;
8978;SDS011;4524;51.364;5.448;2023-09-19T15:37:10;5.15;;;4.13;;
8978;SDS011;4524;51.364;5.448;2023-09-19T15:39:39;7.75;;;4.43;;
8978;SDS011;4524;51.364;5.448;2023-09-19T15:42:08;4.05;;;1.02;;
8978;SDS011;4524;51.364;5.448;2023-09-19T15:44:36;3.45;;;1.00;;
8978;SDS011;4524;51.364;5.448;2023-09-19T15:47:05;4.82;;;1.92;;
8978;SDS011;4524;51.364;5.448;2023-09-19T15:49:33;7.03;;;2.47;;
8978;SDS011;4524;51.364;5.448;2023-09-19T15:52:01;5.22;;;1.02;;
8978;SDS011;4524;51.364;5.448;2023-09-19T15:54:29;6.53;;;1.02;;
8978;SDS011;4524;51.364;5.448;2023-09-19T15:57:00;3.10;;;0.77;;
8978;SDS011;4524;51.364;5.448;2023-09-19T15:59:29;10.15;;;9.13;;
8978;SDS011;4524;51.364;5.448;2023-09-19T16:01:57;11.98;;;7.07;;
8978;SDS011;4524;51.364;5.448;2023-09-19T16:04:25;1.92;;;1.17;;
8978;SDS011;4524;51.364;5.448;2023-09-19T16:06:53;3.17;;;0.60;;
8978;SDS011;4524;51.364;5.448;2023-09-19T16:09:21;10.15;;;2.45;;
8978;SDS011;4524;51.364;5.448;2023-09-19T16:11:49;31.25;;;21.13;;
8978;SDS011;4524;51.364;5.448;2023-09-19T16:14:18;26.35;;;21.83;;
8978;SDS011;4524;51.364;5.448;2023-09-19T16:16:46;9.80;;;7.95;;